sensor_id;sensor_type;location;lat;lon;timestamp;P1;durP1;ratioP1;P2;durP2;ratioP2
68365;SDS011;55283;51.466;5.478;2022-08-03T00:01:54;3.67;;;1.90;;
68365;SDS011;55283;51.466;5.478;2022-08-03T00:04:20;6.67;;;2.30;;
68365;SDS011;55283;51.466;5.478;2022-08-03T00:06:45;3.07;;;1.93;;
68365;SDS011;55283;51.466;5.478;2022-08-03T00:09:11;4.33;;;2.10;;
68365;SDS011;55283;51.466;5.478;2022-08-03T00:11:42;5.85;;;1.88;;
68365;SDS011;55283;51.466;5.478;2022-08-03T00:14:10;3.93;;;1.70;;
68365;SDS011;55283;51.466;5.478;2022-08-03T00:16:35;2.85;;;1.73;;
68365;SDS011;55283;51.466;5.478;2022-08-03T00:19:01;4.43;;;1.80;;
68365;SDS011;55283;51.466;5.478;2022-08-03T00:21:27;4.70;;;1.90;;
68365;SDS011;55283;51.466;5.478;2022-08-03T00:23:53;4.57;;;1.90;;
68365;SDS011;55283;51.466;5.478;2022-08-03T00:26:19;5.00;;;2.17;;
68365;SDS011;55283;51.466;5.478;2022-08-03T00:28:44;4.23;;;1.90;;
68365;SDS011;55283;51.466;5.478;2022-08-03T00:31:10;4.43;;;2.00;;
68365;SDS011;55283;51.466;5.478;2022-08-03T00:33:35;2.95;;;1.70;;
68365;SDS011;55283;51.466;5.478;2022-08-03T00:36:01;3.60;;;1.87;;
68365;SDS011;55283;51.466;5.478;2022-08-03T00:38:26;5.53;;;1.87;;
68365;SDS011;55283;51.466;5.478;2022-08-03T00:40:51;3.87;;;1.80;;
68365;SDS011;55283;51.466;5.478;2022-08-03T00:43:17;4.43;;;1.93;;
68365;SDS011;55283;51.466;5.478;2022-08-03T00:45:42;3.83;;;1.80;;
68365;SDS011;55283;51.466;5.478;2022-08-03T00:48:09;6.23;;;2.20;;
68365;SDS011;55283;51.466;5.478;2022-08-03T00:50:38;3.28;;;1.90;;
68365;SDS011;55283;51.466;5.478;2022-08-03T00:53:05;8.63;;;2.10;;
68365;SDS011;55283;51.466;5.478;2022-08-03T00:55:32;3.58;;;1.75;;
68365;SDS011;55283;51.466;5.478;2022-08-03T00:57:58;4.03;;;2.00;;
68365;SDS011;55283;51.466;5.478;2022-08-03T01:00:25;5.07;;;2.15;;
68365;SDS011;55283;51.466;5.478;2022-08-03T01:02:52;5.93;;;1.97;;
68365;SDS011;55283;51.466;5.478;2022-08-03T01:05:18;5.25;;;2.15;;
68365;SDS011;55283;51.466;5.478;2022-08-03T01:13:30;4.07;;;2.33;;
68365;SDS011;55283;51.466;5.478;2022-08-03T01:16:09;4.07;;;1.90;;
68365;SDS011;55283;51.466;5.478;2022-08-03T01:18:46;5.03;;;2.20;;
68365;SDS011;55283;51.466;5.478;2022-08-03T01:21:17;4.32;;;1.98;;
68365;SDS011;55283;51.466;5.478;2022-08-03T01:24:21;4.10;;;2.38;;
68365;SDS011;55283;51.466;5.478;2022-08-03T01:27:02;4.88;;;2.22;;
68365;SDS011;55283;51.466;5.478;2022-08-03T01:32:24;5.55;;;1.90;;
68365;SDS011;55283;51.466;5.478;2022-08-03T01:34:57;4.60;;;2.10;;
68365;SDS011;55283;51.466;5.478;2022-08-03T01:37:30;5.83;;;2.30;;
68365;SDS011;55283;51.466;5.478;2022-08-03T01:40:05;2.92;;;1.80;;
68365;SDS011;55283;51.466;5.478;2022-08-03T01:42:33;6.53;;;2.10;;
68365;SDS011;55283;51.466;5.478;2022-08-03T01:45:00;3.57;;;1.97;;
68365;SDS011;55283;51.466;5.478;2022-08-03T01:47:27;4.22;;;2.15;;
68365;SDS011;55283;51.466;5.478;2022-08-03T01:49:54;3.28;;;2.00;;
68365;SDS011;55283;51.466;5.478;2022-08-03T01:52:21;3.40;;;2.00;;
68365;SDS011;55283;51.466;5.478;2022-08-03T01:54:52;5.80;;;1.90;;
68365;SDS011;55283;51.466;5.478;2022-08-03T01:57:18;4.85;;;2.00;;
68365;SDS011;55283;51.466;5.478;2022-08-03T01:59:46;3.97;;;2.00;;
68365;SDS011;55283;51.466;5.478;2022-08-03T02:02:16;6.47;;;1.80;;
68365;SDS011;55283;51.466;5.478;2022-08-03T02:04:46;4.75;;;1.90;;
68365;SDS011;55283;51.466;5.478;2022-08-03T02:07:13;5.50;;;2.00;;
68365;SDS011;55283;51.466;5.478;2022-08-03T02:09:40;4.40;;;1.90;;
68365;SDS011;55283;51.466;5.478;2022-08-03T02:12:09;6.03;;;2.00;;
68365;SDS011;55283;51.466;5.478;2022-08-03T02:14:36;6.30;;;2.10;;
68365;SDS011;55283;51.466;5.478;2022-08-03T02:17:05;4.65;;;2.03;;
68365;SDS011;55283;51.466;5.478;2022-08-03T02:19:32;5.37;;;2.00;;
68365;SDS011;55283;51.466;5.478;2022-08-03T02:21:58;4.53;;;2.05;;
68365;SDS011;55283;51.466;5.478;2022-08-03T02:24:25;4.47;;;2.05;;
68365;SDS011;55283;51.466;5.478;2022-08-03T02:26:52;4.13;;;1.90;;
68365;SDS011;55283;51.466;5.478;2022-08-03T02:29:20;5.15;;;1.90;;
68365;SDS011;55283;51.466;5.478;2022-08-03T02:31:48;3.47;;;1.80;;
68365;SDS011;55283;51.466;5.478;2022-08-03T02:34:15;4.67;;;2.07;;
68365;SDS011;55283;51.466;5.478;2022-08-03T02:36:45;4.70;;;2.00;;
68365;SDS011;55283;51.466;5.478;2022-08-03T02:39:15;4.47;;;2.03;;
68365;SDS011;55283;51.466;5.478;2022-08-03T02:41:49;4.18;;;2.00;;
68365;SDS011;55283;51.466;5.478;2022-08-03T02:44:17;4.47;;;2.10;;
68365;SDS011;55283;51.466;5.478;2022-08-03T02:46:49;5.10;;;2.05;;
68365;SDS011;55283;51.466;5.478;2022-08-03T02:49:25;4.63;;;2.25;;
68365;SDS011;55283;51.466;5.478;2022-08-03T02:51:52;4.63;;;2.07;;
68365;SDS011;55283;51.466;5.478;2022-08-03T02:54:19;5.22;;;1.95;;
68365;SDS011;55283;51.466;5.478;2022-08-03T02:56:47;4.32;;;2.10;;
68365;SDS011;55283;51.466;5.478;2022-08-03T02:59:14;5.57;;;2.20;;
68365;SDS011;55283;51.466;5.478;2022-08-03T03:01:42;6.05;;;2.15;;
68365;SDS011;55283;51.466;5.478;2022-08-03T03:04:08;4.28;;;1.90;;
68365;SDS011;55283;51.466;5.478;2022-08-03T03:06:35;4.68;;;2.08;;
68365;SDS011;55283;51.466;5.478;2022-08-03T03:09:02;4.37;;;1.93;;
68365;SDS011;55283;51.466;5.478;2022-08-03T03:11:28;2.88;;;1.90;;
68365;SDS011;55283;51.466;5.478;2022-08-03T03:13:54;3.00;;;2.00;;
68365;SDS011;55283;51.466;5.478;2022-08-03T03:16:21;3.40;;;1.80;;
68365;SDS011;55283;51.466;5.478;2022-08-03T03:18:47;3.55;;;2.03;;
68365;SDS011;55283;51.466;5.478;2022-08-03T03:21:15;4.00;;;2.00;;
68365;SDS011;55283;51.466;5.478;2022-08-03T03:23:43;5.13;;;2.00;;
68365;SDS011;55283;51.466;5.478;2022-08-03T03:26:09;3.78;;;2.10;;
68365;SDS011;55283;51.466;5.478;2022-08-03T03:28:38;6.32;;;2.13;;
68365;SDS011;55283;51.466;5.478;2022-08-03T03:31:04;5.47;;;2.33;;
68365;SDS011;55283;51.466;5.478;2022-08-03T03:33:32;4.45;;;2.10;;
68365;SDS011;55283;51.466;5.478;2022-08-03T03:35:58;4.93;;;2.10;;
68365;SDS011;55283;51.466;5.478;2022-08-03T03:38:26;4.00;;;1.90;;
68365;SDS011;55283;51.466;5.478;2022-08-03T03:40:52;4.15;;;2.10;;
68365;SDS011;55283;51.466;5.478;2022-08-03T03:43:18;4.38;;;1.95;;
68365;SDS011;55283;51.466;5.478;2022-08-03T03:45:43;5.50;;;2.20;;
68365;SDS011;55283;51.466;5.478;2022-08-03T03:48:11;4.90;;;2.00;;
68365;SDS011;55283;51.466;5.478;2022-08-03T03:50:37;4.70;;;2.07;;
68365;SDS011;55283;51.466;5.478;2022-08-03T03:53:07;3.60;;;1.60;;
68365;SDS011;55283;51.466;5.478;2022-08-03T03:55:33;5.25;;;1.90;;
68365;SDS011;55283;51.466;5.478;2022-08-03T03:57:58;4.27;;;2.00;;
68365;SDS011;55283;51.466;5.478;2022-08-03T04:00:26;5.10;;;2.30;;
68365;SDS011;55283;51.466;5.478;2022-08-03T04:02:51;4.40;;;2.03;;
68365;SDS011;55283;51.466;5.478;2022-08-03T04:05:17;4.23;;;2.00;;
68365;SDS011;55283;51.466;5.478;2022-08-03T04:08:14;5.63;;;2.13;;
68365;SDS011;55283;51.466;5.478;2022-08-03T04:13:57;5.90;;;2.08;;
68365;SDS011;55283;51.466;5.478;2022-08-03T04:16:25;4.63;;;1.90;;
68365;SDS011;55283;51.466;5.478;2022-08-03T04:18:54;4.22;;;2.00;;
68365;SDS011;55283;51.466;5.478;2022-08-03T04:21:25;6.70;;;2.33;;
68365;SDS011;55283;51.466;5.478;2022-08-03T04:23:54;6.57;;;2.30;;
68365;SDS011;55283;51.466;5.478;2022-08-03T04:26:22;4.93;;;1.98;;
68365;SDS011;55283;51.466;5.478;2022-08-03T04:28:51;3.27;;;2.17;;
68365;SDS011;55283;51.466;5.478;2022-08-03T04:31:19;4.47;;;2.10;;
68365;SDS011;55283;51.466;5.478;2022-08-03T04:33:47;4.18;;;2.05;;
68365;SDS011;55283;51.466;5.478;2022-08-03T04:36:13;5.17;;;1.93;;
68365;SDS011;55283;51.466;5.478;2022-08-03T04:38:43;7.65;;;2.08;;
68365;SDS011;55283;51.466;5.478;2022-08-03T04:41:14;5.25;;;2.15;;
68365;SDS011;55283;51.466;5.478;2022-08-03T04:43:41;6.20;;;2.00;;
68365;SDS011;55283;51.466;5.478;2022-08-03T04:46:06;6.60;;;1.92;;
68365;SDS011;55283;51.466;5.478;2022-08-03T04:48:33;5.37;;;1.70;;
68365;SDS011;55283;51.466;5.478;2022-08-03T04:50:59;4.68;;;1.90;;
68365;SDS011;55283;51.466;5.478;2022-08-03T04:53:28;4.55;;;2.00;;
68365;SDS011;55283;51.466;5.478;2022-08-03T04:55:54;5.60;;;2.20;;
68365;SDS011;55283;51.466;5.478;2022-08-03T04:58:19;4.07;;;1.80;;
68365;SDS011;55283;51.466;5.478;2022-08-03T05:00:44;6.77;;;2.00;;
68365;SDS011;55283;51.466;5.478;2022-08-03T05:03:10;4.10;;;1.70;;
68365;SDS011;55283;51.466;5.478;2022-08-03T05:05:35;5.40;;;2.07;;
68365;SDS011;55283;51.466;5.478;2022-08-03T05:08:00;4.63;;;1.90;;
68365;SDS011;55283;51.466;5.478;2022-08-03T05:10:26;3.23;;;1.70;;
68365;SDS011;55283;51.466;5.478;2022-08-03T05:12:51;4.50;;;2.00;;
68365;SDS011;55283;51.466;5.478;2022-08-03T05:15:17;5.40;;;1.70;;
68365;SDS011;55283;51.466;5.478;2022-08-03T05:17:43;4.20;;;1.70;;
68365;SDS011;55283;51.466;5.478;2022-08-03T05:20:09;5.53;;;1.90;;
68365;SDS011;55283;51.466;5.478;2022-08-03T05:22:34;5.28;;;1.80;;
68365;SDS011;55283;51.466;5.478;2022-08-03T05:25:00;4.20;;;1.90;;
68365;SDS011;55283;51.466;5.478;2022-08-03T05:27:26;5.10;;;1.88;;
68365;SDS011;55283;51.466;5.478;2022-08-03T05:29:51;4.03;;;1.97;;
68365;SDS011;55283;51.466;5.478;2022-08-03T05:32:17;4.47;;;1.73;;
68365;SDS011;55283;51.466;5.478;2022-08-03T05:34:42;3.58;;;1.63;;
68365;SDS011;55283;51.466;5.478;2022-08-03T05:37:08;3.20;;;1.73;;
68365;SDS011;55283;51.466;5.478;2022-08-03T05:39:34;7.45;;;1.92;;
68365;SDS011;55283;51.466;5.478;2022-08-03T05:42:00;4.93;;;1.93;;
68365;SDS011;55283;51.466;5.478;2022-08-03T05:44:26;5.70;;;1.88;;
68365;SDS011;55283;51.466;5.478;2022-08-03T05:46:52;5.87;;;2.00;;
68365;SDS011;55283;51.466;5.478;2022-08-03T05:49:20;4.63;;;1.50;;
68365;SDS011;55283;51.466;5.478;2022-08-03T05:51:45;5.33;;;1.93;;
68365;SDS011;55283;51.466;5.478;2022-08-03T05:54:11;5.30;;;1.90;;
68365;SDS011;55283;51.466;5.478;2022-08-03T05:56:36;5.23;;;1.67;;
68365;SDS011;55283;51.466;5.478;2022-08-03T05:59:02;6.47;;;1.80;;
68365;SDS011;55283;51.466;5.478;2022-08-03T06:01:28;5.50;;;1.88;;
68365;SDS011;55283;51.466;5.478;2022-08-03T06:03:55;6.85;;;1.92;;
68365;SDS011;55283;51.466;5.478;2022-08-03T06:06:28;7.77;;;2.13;;
68365;SDS011;55283;51.466;5.478;2022-08-03T06:08:53;6.67;;;2.10;;
68365;SDS011;55283;51.466;5.478;2022-08-03T06:11:21;5.47;;;2.05;;
68365;SDS011;55283;51.466;5.478;2022-08-03T06:13:47;9.73;;;2.20;;
68365;SDS011;55283;51.466;5.478;2022-08-03T06:16:12;6.85;;;2.30;;
68365;SDS011;55283;51.466;5.478;2022-08-03T06:18:40;6.00;;;2.00;;
68365;SDS011;55283;51.466;5.478;2022-08-03T06:21:06;8.27;;;2.47;;
68365;SDS011;55283;51.466;5.478;2022-08-03T06:23:34;9.57;;;2.13;;
68365;SDS011;55283;51.466;5.478;2022-08-03T06:26:00;11.50;;;2.20;;
68365;SDS011;55283;51.466;5.478;2022-08-03T06:28:25;12.70;;;2.15;;
68365;SDS011;55283;51.466;5.478;2022-08-03T06:30:51;10.53;;;1.93;;
68365;SDS011;55283;51.466;5.478;2022-08-03T06:33:16;7.13;;;2.07;;
68365;SDS011;55283;51.466;5.478;2022-08-03T06:35:41;12.32;;;2.15;;
68365;SDS011;55283;51.466;5.478;2022-08-03T06:38:07;10.37;;;1.93;;
68365;SDS011;55283;51.466;5.478;2022-08-03T06:40:35;10.23;;;2.05;;
68365;SDS011;55283;51.466;5.478;2022-08-03T06:43:04;9.27;;;1.80;;
68365;SDS011;55283;51.466;5.478;2022-08-03T06:45:33;9.75;;;2.33;;
68365;SDS011;55283;51.466;5.478;2022-08-03T06:50:28;9.13;;;2.40;;
68365;SDS011;55283;51.466;5.478;2022-08-03T06:52:54;9.88;;;2.42;;
68365;SDS011;55283;51.466;5.478;2022-08-03T06:55:19;6.57;;;2.00;;
68365;SDS011;55283;51.466;5.478;2022-08-03T06:57:45;9.50;;;2.17;;
68365;SDS011;55283;51.466;5.478;2022-08-03T07:00:10;8.03;;;2.07;;
68365;SDS011;55283;51.466;5.478;2022-08-03T07:02:36;5.38;;;1.90;;
68365;SDS011;55283;51.466;5.478;2022-08-03T07:05:02;6.90;;;1.80;;
68365;SDS011;55283;51.466;5.478;2022-08-03T07:07:28;7.53;;;1.90;;
68365;SDS011;55283;51.466;5.478;2022-08-03T07:09:56;6.80;;;2.30;;
68365;SDS011;55283;51.466;5.478;2022-08-03T07:12:21;6.70;;;1.70;;
68365;SDS011;55283;51.466;5.478;2022-08-03T07:14:50;9.47;;;1.93;;
68365;SDS011;55283;51.466;5.478;2022-08-03T07:17:15;8.57;;;1.98;;
68365;SDS011;55283;51.466;5.478;2022-08-03T07:19:40;6.03;;;2.03;;
68365;SDS011;55283;51.466;5.478;2022-08-03T07:22:09;7.18;;;2.00;;
68365;SDS011;55283;51.466;5.478;2022-08-03T07:24:35;7.93;;;2.20;;
68365;SDS011;55283;51.466;5.478;2022-08-03T07:27:00;7.33;;;2.00;;
68365;SDS011;55283;51.466;5.478;2022-08-03T07:29:26;8.80;;;2.10;;
68365;SDS011;55283;51.466;5.478;2022-08-03T07:31:52;12.38;;;2.00;;
68365;SDS011;55283;51.466;5.478;2022-08-03T07:34:20;8.40;;;1.70;;
68365;SDS011;55283;51.466;5.478;2022-08-03T07:36:48;11.90;;;2.20;;
68365;SDS011;55283;51.466;5.478;2022-08-03T07:39:13;10.53;;;1.87;;
68365;SDS011;55283;51.466;5.478;2022-08-03T07:41:42;9.05;;;2.05;;
68365;SDS011;55283;51.466;5.478;2022-08-03T07:44:07;5.60;;;1.87;;
68365;SDS011;55283;51.466;5.478;2022-08-03T07:46:35;6.87;;;2.03;;
68365;SDS011;55283;51.466;5.478;2022-08-03T07:49:00;9.57;;;2.22;;
68365;SDS011;55283;51.466;5.478;2022-08-03T07:51:26;9.67;;;2.00;;
68365;SDS011;55283;51.466;5.478;2022-08-03T07:53:51;8.33;;;2.30;;
68365;SDS011;55283;51.466;5.478;2022-08-03T07:56:16;9.15;;;2.20;;
68365;SDS011;55283;51.466;5.478;2022-08-03T07:58:45;9.77;;;2.07;;
68365;SDS011;55283;51.466;5.478;2022-08-03T08:01:10;6.87;;;2.10;;
68365;SDS011;55283;51.466;5.478;2022-08-03T08:03:36;10.80;;;2.17;;
68365;SDS011;55283;51.466;5.478;2022-08-03T08:06:01;7.63;;;2.00;;
68365;SDS011;55283;51.466;5.478;2022-08-03T08:08:26;9.60;;;2.10;;
68365;SDS011;55283;51.466;5.478;2022-08-03T08:10:52;14.30;;;2.10;;
68365;SDS011;55283;51.466;5.478;2022-08-03T08:13:17;9.07;;;2.00;;
68365;SDS011;55283;51.466;5.478;2022-08-03T08:15:42;9.98;;;2.25;;
68365;SDS011;55283;51.466;5.478;2022-08-03T08:18:08;10.27;;;2.10;;
68365;SDS011;55283;51.466;5.478;2022-08-03T08:20:34;13.20;;;2.10;;
68365;SDS011;55283;51.466;5.478;2022-08-03T08:23:04;7.00;;;2.30;;
68365;SDS011;55283;51.466;5.478;2022-08-03T08:25:31;9.73;;;2.08;;
68365;SDS011;55283;51.466;5.478;2022-08-03T08:27:58;9.87;;;2.40;;
68365;SDS011;55283;51.466;5.478;2022-08-03T08:30:27;7.82;;;2.20;;
68365;SDS011;55283;51.466;5.478;2022-08-03T08:32:53;10.00;;;2.25;;
68365;SDS011;55283;51.466;5.478;2022-08-03T08:35:21;10.60;;;2.20;;
68365;SDS011;55283;51.466;5.478;2022-08-03T08:37:47;7.07;;;2.00;;
68365;SDS011;55283;51.466;5.478;2022-08-03T08:40:21;10.37;;;2.40;;
68365;SDS011;55283;51.466;5.478;2022-08-03T08:42:46;7.72;;;2.20;;
68365;SDS011;55283;51.466;5.478;2022-08-03T08:45:12;9.57;;;2.40;;
68365;SDS011;55283;51.466;5.478;2022-08-03T08:47:43;9.32;;;2.20;;
68365;SDS011;55283;51.466;5.478;2022-08-03T08:50:11;10.57;;;2.20;;
68365;SDS011;55283;51.466;5.478;2022-08-03T08:52:39;9.33;;;2.07;;
68365;SDS011;55283;51.466;5.478;2022-08-03T08:55:07;8.65;;;2.08;;
68365;SDS011;55283;51.466;5.478;2022-08-03T08:57:35;9.80;;;2.30;;
68365;SDS011;55283;51.466;5.478;2022-08-03T09:00:06;13.17;;;2.40;;
68365;SDS011;55283;51.466;5.478;2022-08-03T09:02:34;9.00;;;2.03;;
68365;SDS011;55283;51.466;5.478;2022-08-03T09:04:59;10.98;;;2.25;;
68365;SDS011;55283;51.466;5.478;2022-08-03T09:07:26;11.93;;;2.30;;
68365;SDS011;55283;51.466;5.478;2022-08-03T09:09:55;11.15;;;2.13;;
68365;SDS011;55283;51.466;5.478;2022-08-03T09:12:20;10.07;;;2.57;;
68365;SDS011;55283;51.466;5.478;2022-08-03T09:14:57;11.00;;;2.00;;
68365;SDS011;55283;51.466;5.478;2022-08-03T09:17:39;9.05;;;2.33;;
68365;SDS011;55283;51.466;5.478;2022-08-03T09:20:05;9.23;;;2.60;;
68365;SDS011;55283;51.466;5.478;2022-08-03T09:22:34;9.35;;;2.45;;
68365;SDS011;55283;51.466;5.478;2022-08-03T09:25:17;9.17;;;2.13;;
68365;SDS011;55283;51.466;5.478;2022-08-03T09:27:43;9.70;;;2.38;;
68365;SDS011;55283;51.466;5.478;2022-08-03T09:30:15;9.83;;;2.30;;
68365;SDS011;55283;51.466;5.478;2022-08-03T09:32:42;8.40;;;2.20;;
68365;SDS011;55283;51.466;5.478;2022-08-03T09:35:14;10.35;;;2.10;;
68365;SDS011;55283;51.466;5.478;2022-08-03T09:37:42;11.33;;;2.50;;
68365;SDS011;55283;51.466;5.478;2022-08-03T09:40:07;10.02;;;2.15;;
68365;SDS011;55283;51.466;5.478;2022-08-03T09:42:33;11.90;;;2.30;;
68365;SDS011;55283;51.466;5.478;2022-08-03T09:45:03;9.52;;;2.38;;
68365;SDS011;55283;51.466;5.478;2022-08-03T09:47:30;12.52;;;2.65;;
68365;SDS011;55283;51.466;5.478;2022-08-03T09:50:01;9.63;;;2.00;;
68365;SDS011;55283;51.466;5.478;2022-08-03T09:52:39;12.23;;;2.20;;
68365;SDS011;55283;51.466;5.478;2022-08-03T09:55:12;14.98;;;2.58;;
68365;SDS011;55283;51.466;5.478;2022-08-03T09:57:38;8.77;;;2.13;;
68365;SDS011;55283;51.466;5.478;2022-08-03T10:00:09;16.10;;;2.40;;
68365;SDS011;55283;51.466;5.478;2022-08-03T10:02:37;12.82;;;2.70;;
68365;SDS011;55283;51.466;5.478;2022-08-03T10:05:04;11.85;;;2.25;;
68365;SDS011;55283;51.466;5.478;2022-08-03T10:07:40;10.60;;;2.20;;
68365;SDS011;55283;51.466;5.478;2022-08-03T10:10:07;16.13;;;2.40;;
68365;SDS011;55283;51.466;5.478;2022-08-03T10:12:34;11.82;;;2.20;;
68365;SDS011;55283;51.466;5.478;2022-08-03T10:15:00;12.60;;;2.47;;
68365;SDS011;55283;51.466;5.478;2022-08-03T10:17:27;9.25;;;2.20;;
68365;SDS011;55283;51.466;5.478;2022-08-03T10:19:52;12.10;;;2.40;;
68365;SDS011;55283;51.466;5.478;2022-08-03T10:22:21;14.10;;;2.70;;
68365;SDS011;55283;51.466;5.478;2022-08-03T10:27:31;17.35;;;2.60;;
68365;SDS011;55283;51.466;5.478;2022-08-03T10:30:00;12.60;;;2.70;;
68365;SDS011;55283;51.466;5.478;2022-08-03T10:32:33;17.43;;;2.63;;
68365;SDS011;55283;51.466;5.478;2022-08-03T10:35:06;14.07;;;2.72;;
68365;SDS011;55283;51.466;5.478;2022-08-03T10:37:41;14.65;;;2.55;;
68365;SDS011;55283;51.466;5.478;2022-08-03T10:40:23;12.67;;;2.43;;
68365;SDS011;55283;51.466;5.478;2022-08-03T10:42:55;14.25;;;2.85;;
68365;SDS011;55283;51.466;5.478;2022-08-03T10:45:24;11.15;;;2.40;;
68365;SDS011;55283;51.466;5.478;2022-08-03T10:47:51;11.70;;;2.55;;
68365;SDS011;55283;51.466;5.478;2022-08-03T10:50:17;12.77;;;2.90;;
68365;SDS011;55283;51.466;5.478;2022-08-03T10:53:02;14.02;;;2.50;;
68365;SDS011;55283;51.466;5.478;2022-08-03T10:55:31;13.23;;;2.50;;
68365;SDS011;55283;51.466;5.478;2022-08-03T11:01:00;10.65;;;2.30;;
68365;SDS011;55283;51.466;5.478;2022-08-03T11:03:29;12.10;;;2.40;;
68365;SDS011;55283;51.466;5.478;2022-08-03T11:06:12;12.17;;;2.33;;
68365;SDS011;55283;51.466;5.478;2022-08-03T11:08:42;6.90;;;2.30;;
68365;SDS011;55283;51.466;5.478;2022-08-03T11:13:59;11.88;;;2.50;;
68365;SDS011;55283;51.466;5.478;2022-08-03T11:16:26;7.97;;;2.10;;
68365;SDS011;55283;51.466;5.478;2022-08-03T11:18:59;9.37;;;2.20;;
68365;SDS011;55283;51.466;5.478;2022-08-03T11:33:04;9.30;;;2.30;;
68365;SDS011;55283;51.466;5.478;2022-08-03T11:35:06;11.15;;;2.45;;
68365;SDS011;55283;51.466;5.478;2022-08-03T11:37:33;11.40;;;2.33;;
68365;SDS011;55283;51.466;5.478;2022-08-03T11:39:59;9.32;;;2.17;;
68365;SDS011;55283;51.466;5.478;2022-08-03T11:44:59;14.13;;;2.30;;
68365;SDS011;55283;51.466;5.478;2022-08-03T11:47:28;12.93;;;2.20;;
68365;SDS011;55283;51.466;5.478;2022-08-03T11:49:57;10.02;;;2.33;;
68365;SDS011;55283;51.466;5.478;2022-08-03T11:52:26;9.53;;;2.10;;
68365;SDS011;55283;51.466;5.478;2022-08-03T11:54:57;8.15;;;2.10;;
68365;SDS011;55283;51.466;5.478;2022-08-03T11:57:30;11.57;;;2.47;;
68365;SDS011;55283;51.466;5.478;2022-08-03T12:00:00;5.43;;;1.87;;
68365;SDS011;55283;51.466;5.478;2022-08-03T12:02:25;8.55;;;1.88;;
68365;SDS011;55283;51.466;5.478;2022-08-03T12:04:55;8.17;;;2.00;;
68365;SDS011;55283;51.466;5.478;2022-08-03T12:07:28;6.50;;;1.88;;
68365;SDS011;55283;51.466;5.478;2022-08-03T12:10:10;5.63;;;1.95;;
68365;SDS011;55283;51.466;5.478;2022-08-03T12:12:39;7.63;;;2.00;;
68365;SDS011;55283;51.466;5.478;2022-08-03T12:15:06;5.70;;;2.00;;
68365;SDS011;55283;51.466;5.478;2022-08-03T12:17:36;8.70;;;1.95;;
68365;SDS011;55283;51.466;5.478;2022-08-03T12:20:13;7.90;;;2.17;;
68365;SDS011;55283;51.466;5.478;2022-08-03T12:22:46;11.40;;;2.35;;
68365;SDS011;55283;51.466;5.478;2022-08-03T12:25:19;8.13;;;1.90;;
68365;SDS011;55283;51.466;5.478;2022-08-03T12:27:49;6.35;;;2.20;;
68365;SDS011;55283;51.466;5.478;2022-08-03T12:30:16;7.72;;;2.15;;
68365;SDS011;55283;51.466;5.478;2022-08-03T12:32:42;8.70;;;2.10;;
68365;SDS011;55283;51.466;5.478;2022-08-03T12:35:08;8.63;;;2.10;;
68365;SDS011;55283;51.466;5.478;2022-08-03T12:37:34;7.10;;;2.05;;
68365;SDS011;55283;51.466;5.478;2022-08-03T12:40:01;8.48;;;1.88;;
68365;SDS011;55283;51.466;5.478;2022-08-03T12:42:34;9.33;;;2.00;;
68365;SDS011;55283;51.466;5.478;2022-08-03T12:48:03;6.13;;;1.80;;
68365;SDS011;55283;51.466;5.478;2022-08-03T12:50:35;8.13;;;2.17;;
68365;SDS011;55283;51.466;5.478;2022-08-03T12:53:03;5.80;;;1.83;;
68365;SDS011;55283;51.466;5.478;2022-08-03T12:55:30;5.07;;;2.10;;
68365;SDS011;55283;51.466;5.478;2022-08-03T12:58:03;5.53;;;1.95;;
68365;SDS011;55283;51.466;5.478;2022-08-03T13:00:30;6.40;;;1.93;;
68365;SDS011;55283;51.466;5.478;2022-08-03T13:02:59;4.20;;;1.90;;
68365;SDS011;55283;51.466;5.478;2022-08-03T13:05:26;6.07;;;2.03;;
68365;SDS011;55283;51.466;5.478;2022-08-03T13:07:51;6.57;;;1.90;;
68365;SDS011;55283;51.466;5.478;2022-08-03T13:10:27;8.70;;;2.00;;
68365;SDS011;55283;51.466;5.478;2022-08-03T13:13:00;7.97;;;1.97;;
68365;SDS011;55283;51.466;5.478;2022-08-03T13:15:28;7.25;;;2.00;;
68365;SDS011;55283;51.466;5.478;2022-08-03T13:17:57;7.20;;;2.00;;
68365;SDS011;55283;51.466;5.478;2022-08-03T13:20:22;5.80;;;2.42;;
68365;SDS011;55283;51.466;5.478;2022-08-03T13:22:48;5.18;;;1.90;;
68365;SDS011;55283;51.466;5.478;2022-08-03T13:25:14;6.77;;;2.30;;
68365;SDS011;55283;51.466;5.478;2022-08-03T13:27:40;5.75;;;2.13;;
68365;SDS011;55283;51.466;5.478;2022-08-03T13:30:06;4.17;;;1.67;;
68365;SDS011;55283;51.466;5.478;2022-08-03T13:32:32;5.30;;;1.90;;
68365;SDS011;55283;51.466;5.478;2022-08-03T13:35:01;4.80;;;1.80;;
68365;SDS011;55283;51.466;5.478;2022-08-03T13:37:27;5.85;;;1.88;;
68365;SDS011;55283;51.466;5.478;2022-08-03T13:39:53;5.97;;;1.80;;
68365;SDS011;55283;51.466;5.478;2022-08-03T13:42:19;7.07;;;1.80;;
68365;SDS011;55283;51.466;5.478;2022-08-03T13:44:44;4.53;;;1.77;;
68365;SDS011;55283;51.466;5.478;2022-08-03T13:47:10;5.25;;;1.80;;
68365;SDS011;55283;51.466;5.478;2022-08-03T13:49:36;4.65;;;1.67;;
68365;SDS011;55283;51.466;5.478;2022-08-03T13:52:01;4.67;;;1.93;;
68365;SDS011;55283;51.466;5.478;2022-08-03T13:54:26;5.23;;;1.70;;
68365;SDS011;55283;51.466;5.478;2022-08-03T13:56:52;8.70;;;1.97;;
68365;SDS011;55283;51.466;5.478;2022-08-03T13:59:18;4.43;;;1.80;;
68365;SDS011;55283;51.466;5.478;2022-08-03T14:01:44;4.90;;;1.80;;
68365;SDS011;55283;51.466;5.478;2022-08-03T14:04:13;8.07;;;1.92;;
68365;SDS011;55283;51.466;5.478;2022-08-03T14:06:39;5.03;;;1.70;;
68365;SDS011;55283;51.466;5.478;2022-08-03T14:09:05;4.18;;;1.80;;
68365;SDS011;55283;51.466;5.478;2022-08-03T14:11:30;4.03;;;1.77;;
68365;SDS011;55283;51.466;5.478;2022-08-03T14:13:56;3.77;;;1.80;;
68365;SDS011;55283;51.466;5.478;2022-08-03T14:16:21;6.60;;;1.87;;
68365;SDS011;55283;51.466;5.478;2022-08-03T14:18:46;5.57;;;1.70;;
68365;SDS011;55283;51.466;5.478;2022-08-03T14:21:12;4.33;;;1.70;;
68365;SDS011;55283;51.466;5.478;2022-08-03T14:23:38;3.67;;;1.67;;
68365;SDS011;55283;51.466;5.478;2022-08-03T14:26:06;3.60;;;1.67;;
68365;SDS011;55283;51.466;5.478;2022-08-03T14:28:34;3.58;;;1.83;;
68365;SDS011;55283;51.466;5.478;2022-08-03T14:31:00;3.70;;;1.63;;
68365;SDS011;55283;51.466;5.478;2022-08-03T14:33:27;4.72;;;1.50;;
68365;SDS011;55283;51.466;5.478;2022-08-03T14:35:53;3.20;;;1.50;;
68365;SDS011;55283;51.466;5.478;2022-08-03T14:38:19;3.58;;;1.60;;
68365;SDS011;55283;51.466;5.478;2022-08-03T14:40:48;4.20;;;1.70;;
68365;SDS011;55283;51.466;5.478;2022-08-03T14:43:14;4.70;;;1.60;;
68365;SDS011;55283;51.466;5.478;2022-08-03T14:45:42;2.80;;;1.50;;
68365;SDS011;55283;51.466;5.478;2022-08-03T14:48:07;2.13;;;1.67;;
68365;SDS011;55283;51.466;5.478;2022-08-03T14:50:32;4.00;;;1.40;;
68365;SDS011;55283;51.466;5.478;2022-08-03T14:52:58;2.97;;;1.73;;
68365;SDS011;55283;51.466;5.478;2022-08-03T14:55:24;4.00;;;1.50;;
68365;SDS011;55283;51.466;5.478;2022-08-03T14:57:52;4.63;;;1.60;;
68365;SDS011;55283;51.466;5.478;2022-08-03T15:00:17;4.50;;;1.60;;
68365;SDS011;55283;51.466;5.478;2022-08-03T15:02:46;24.95;;;5.60;;
68365;SDS011;55283;51.466;5.478;2022-08-03T15:05:11;23.43;;;5.13;;
68365;SDS011;55283;51.466;5.478;2022-08-03T15:07:39;15.57;;;4.25;;
68365;SDS011;55283;51.466;5.478;2022-08-03T15:10:04;16.63;;;4.00;;
68365;SDS011;55283;51.466;5.478;2022-08-03T15:12:29;10.47;;;2.90;;
68365;SDS011;55283;51.466;5.478;2022-08-03T15:14:56;8.32;;;2.83;;
68365;SDS011;55283;51.466;5.478;2022-08-03T15:17:21;7.47;;;2.67;;
68365;SDS011;55283;51.466;5.478;2022-08-03T15:19:48;8.80;;;2.57;;
68365;SDS011;55283;51.466;5.478;2022-08-03T15:22:13;6.77;;;2.20;;
68365;SDS011;55283;51.466;5.478;2022-08-03T15:24:41;5.38;;;2.20;;
68365;SDS011;55283;51.466;5.478;2022-08-03T15:27:09;5.77;;;2.00;;
68365;SDS011;55283;51.466;5.478;2022-08-03T15:29:34;4.47;;;1.97;;